Tiempo atmosférico en la estación meteorológica de Logroño Aeropuerto, La Rioja (353 m.)



Fecha
DESCASC
Temp. máxima en grados centígrados (hora)
DESCASC
Temp. mínima en grados centígrados (hora)
DESCASC
Temp. media en grados centígrados
DESCASC
Racha de viento máxima en m/sg (hora)
DESCASC
Velocidad máxima media en intervalos de 10 minutos(hora)
DESCASC
Precipitaciones diarias en mm
DESCASC
Precipitaciones de 00:00 a 06:00 en mm
DESCASC
Precipitaciones de 06:00 a 12:00 en mm
DESCASC
Precipitaciones de 12:00 a 18:00 en mm
DESCASC
Precipitaciones de 18:00 a 24:00 en mm
DESCASC
20-01-2019 10.4 (13:20) 4.5 (03:10) 7.4 10.83 (12:30) 6.39 (12:50) 0.7 0.5 0.2 0 0
19-01-2019 10.1 (14:30) 3.5 (09:00) 6.8 8.33 (00:10) 5.28 (02:30) 1.6 0 0 0 1.6
18-01-2019 9 (14:40) 1.9 (00:00) 5.4 7.22 (23:20) 4.72 (23:00) 0 0 0 0 0
17-01-2019 12 (15:40) 2.1 (00:00) 7 7.78 (13:40) 4.72 (13:50) 0 0 0 0 0
16-01-2019 7.1 (16:40) -2.5 (-00:0) 2.3 4.72 (21:50) 2.78 (17:10) 0 0 0 0 0
15-01-2019 13.4 (15:20) 0.2 (00:00) 6.8 5.83 (01:00) 3.89 (02:40) 0 0 0 0 0
14-01-2019 13 (16:00) 4.3 (00:00) 8.7 9.17 (15:40) 5.56 (13:00) 0 0 0 0 0
13-01-2019 11.6 (14:30) 4.9 (00:00) 8.3 10.83 (11:10) 6.11 (11:10) 0 0 0 0 0
12-01-2019 9.1 (16:00) 5.2 (00:00) 7.2 7.78 (13:10) 4.72 (17:40) 0 0 0 0 0
11-01-2019 8.8 (15:00) 1.7 (00:00) 5.3 8.33 (15:00) 5.28 (15:40) 0 0 0 0 0
10-01-2019 7.7 (13:30) 1.7 (00:00) 4.7 8.89 (01:30) 5 (02:30) 0 0 0 0 0
09-01-2019 12.5 (14:20) 5.6 (00:00) 9 10.83 (15:20) 6.11 (15:30) 0 0 0 0 0
08-01-2019 9 (16:00) 1.7 (00:00) 5.4 11.39 (14:00) 7.78 (14:40) 0 0 0 0 0
07-01-2019 7.4 (13:50) 1.9 (00:00) 4.7 12.78 (11:40) 7.78 (16:10) -- 0 -- 0 0
06-01-2019 12.4 (16:10) 1.5 (00:00) 6.9 9.72 (13:30) 6.11 (14:10) 0 0 0 0 0
05-01-2019 14.5 (15:10) 2 (00:00) 8.3 9.72 (14:00) 6.11 (15:20) 0 0 0 0 0
04-01-2019 13.1 (16:00) 1.2 (00:00) 7.2 9.17 (15:10) 5.83 (15:40) 0 0 0 0 0
03-01-2019 9.7 (14:30) 1.6 (00:00) 5.6 9.17 (10:50) 6.11 (03:00) 0 0 0 0 0
02-01-2019 10.3 (13:40) 3 (00:00) 6.7 12.78 (16:00) 8.33 (15:00) 0 0 0 0 0
01-01-2019 15.9 (15:20) 4.4 (00:00) 10.1 9.17 (13:20) 5 (14:00) 0 0 0 0 0
31-12-2018 17.1 (15:50) 3.7 (00:00) 10.4 7.22 (06:30) 5 (13:20) 0 0 0 0 0
30-12-2018 13.5 (15:40) 2.4 (00:00) 8 7.78 (09:20) 5 (02:30) 0 0 0 0 0
29-12-2018 13.7 (14:10) 5.2 (00:00) 9.4 8.89 (13:50) 5.83 (15:00) 0 0 0 0 0
28-12-2018 11.1 (14:40) -0.9 (-00:0) 5.1 7.78 (14:20) 4.72 (14:50) 0 0 0 0 0
27-12-2018 7.6 (15:10) -0.6 (-00:0) 3.5 3.06 (11:10) 1.94 (01:40) 0 0 0 0 0
26-12-2018 6.1 (15:00) 4.4 (00:00) 5.3 3.06 (00:10) 2.5 (00:30) 0 0 0 0 0
25-12-2018 9.6 (13:10) 2.6 (00:00) 6.1 6.67 (14:20) 5.28 (14:40) 0 0 0 0 0
24-12-2018 15.3 (15:30) 1.6 (02:20) 8.5 8.89 (11:40) 5.56 (14:10) 0 0 0 0 0
23-12-2018 15.1 (15:30) 1.3 (00:00) 8.2 -- (--) -- (--) 0 0 0 0 0

Gráficas

Temp. máximas Temp. mínimas Temp. medias Precipitaciones Rachas de viento máximas Velocidades máximas media en intervalos de 10 minutos

Datos horarios

Fecha y hora oficial Temperatura (ºC) Velocidad del viento (km/h) Dirección del viento Racha (km/h) Dirección de racha Precipitación (mm) Presión (hPa) Tendencia (hPa) Humedad (%)
2019-01-21 23:00:00 5.1 10 Oeste 18 Sudoeste 0 979.2 -0.4 73
2019-01-21 22:00:00 4.3 6 Oeste 11 Oeste 0 979.8 0.2 75
2019-01-21 21:00:00 3.5 6 Oeste 13 Sudoeste 0 979.8 0.7 78
2019-01-21 20:00:00 5 6 Oeste 21 Oeste 0 979.6 0.6 69
2019-01-21 19:00:00 6 8 Oeste 24 Oeste 0 979.6 0.7 66
2019-01-21 18:00:00 6.9 9 Oeste 28 Oeste 0 979.1 0.2 63
2019-01-21 17:00:00 8.8 13 Oeste 30 Oeste 0 979 -0.2 54
2019-01-21 16:00:00 8.6 16 Oeste 35 Noroeste 0 978.9 -0.8 48
2019-01-21 15:00:00 9.5 15 Oeste 30 Oeste 0 978.9 -1.4 51
2019-01-21 14:00:00 8.3 18 Sudoeste 42 Oeste 0 979.2 -0.4 64
2019-01-21 13:00:00 7.9 20 Oeste 35 Oeste 0 979.7 0.8 58
2019-01-21 12:00:00 6.9 15 Oeste 28 Sudoeste 0 980.3 1.8 73
2019-01-21 11:00:00 6.8 17 Oeste 30 Oeste 0 979.6 1.9 71
2019-01-21 10:00:00 6.1 19 Oeste 28 Oeste 0 978.9 1.2 77
2019-01-21 09:00:00 5.7 15 Oeste 22 Oeste 0 978.5 1.6 80
2019-01-21 08:00:00 4.9 12 Oeste 22 Oeste 0.1 977.7 0.8 86
2019-01-21 07:00:00 5.8 10 Oeste 24 Sudoeste 0 977.7 0.9 81
2019-01-21 06:00:00 5.4 11 Oeste 24 Oeste 0 976.9 0 82
2019-01-21 05:00:00 5.9 11 Oeste 24 Oeste 0 976.9 0.1 80
2019-01-21 04:00:00 6 14 Oeste 22 Oeste 0 976.8 0.2 80
2019-01-21 03:00:00 6.6 12 Oeste 22 Oeste 0 976.9 0.7 77
2019-01-21 02:00:00 6.5 13 Oeste 22 Sudoeste 0 976.8 1 80
2019-01-21 01:00:00 6.5 12 Oeste 26 Sudoeste 0 976.6 1.2 79
2019-01-21 00:00:00 6.3 19 Sudoeste 30 Sudoeste 0 976.2 1.2 77
2019-01-20 23:00:00 6.7 19 Oeste 32 Oeste 0 975.8 1.3 80
2019-01-20 22:00:00 7 16 Oeste 24 Sudoeste 0 975.4 1.5 77
2019-01-20 21:00:00 7.1 14 Oeste 22 Oeste 0 975 1.9 76
2019-01-20 20:00:00 6.4 13 Oeste 22 Oeste 0 974.5 1.6 79
2019-01-20 19:00:00 7.3 13 Oeste 28 Oeste 0 973.9 1.5 73
2019-01-20 18:00:00 7.8 14 Oeste 26 Oeste 0 973.1 1.2 71
2019-01-20 17:00:00 8.5 13 Oeste 28 Oeste 0 972.9 1.1 70
2019-01-20 16:00:00 8.4 17 Oeste 35 Noroeste 0 972.4 0.6 69
2019-01-20 15:00:00 9.8 14 Oeste 35 Noroeste 0 971.9 0.2 66
2019-01-20 14:00:00 9.5 13 Oeste 32 Oeste 0 971.8 0.7 68
2019-01-20 13:00:00 9.6 13 Oeste 39 Sudoeste 0 971.8 1.4 69
2019-01-20 12:00:00 9.8 20 Oeste 32 Oeste 0 971.7 1.8 68
2019-01-20 11:00:00 8.3 14 Oeste 28 Oeste 0 971.1 1.7 74
2019-01-20 10:00:00 6.8 14 Oeste 24 Oeste 0 970.4 1.6 87
2019-01-20 09:00:00 5.1 6 Oeste 11 Oeste 0.1 969.9 1.5 96
2019-01-20 08:00:00 4.8 7 Oeste 9 Oeste 0.1 969.4 1.1 97
2019-01-20 07:00:00 4.7 3 Oeste 9 Oeste 0 968.8 0.6 97
2019-01-20 06:00:00 4.6 2 Oeste 5 Oeste 0.1 968.4 0.7 97
2019-01-20 05:00:00 4.6 3 Sudoeste 5 Oeste 0 968.3 1.3 96
2019-01-20 04:00:00 4.6 0 Calma 5 Nordeste 0 968.2 1.4 96
2019-01-20 03:00:00 4.6 5 Norte 11 Norte 0.2 967.7 1.3 96
2019-01-20 02:00:00 4.8 9 Nordeste 13 Nordeste 0.2 967 0.9 96
2019-01-20 01:00:00 5 11 Nordeste 13 Nordeste 0 966.8 0.8 96
2019-01-20 00:00:00 5.3 8 Nordeste 13 Nordeste 0.2 966.4 0.3 95
2019-01-19 23:00:00 5.6 7 Nordeste 9 Norte 0.4 966.1 0 92
2019-01-19 22:00:00 6.2 0 Calma 4 Oeste 0.6 966 -0.3 90
2019-01-19 21:00:00 6.4 2 Noroeste 5 Norte 0.4 966.1 -0.7 88
2019-01-19 20:00:00 6.7 3 Norte 9 Norte 0 966.1 -1.1 83
2019-01-19 19:00:00 7.3 0 Calma 5 Norte 0 966.3 -1.4 75
2019-01-19 18:00:00 8.2 0 Calma 9 Nordeste 0 966.8 -1.5 68
2019-01-19 17:00:00 8.9 8 Nordeste 15 Nordeste 0 967.2 -2.7 63
2019-01-19 16:00:00 9.3 13 Este 24 Nordeste 0 967.7 -3.5 61
2019-01-19 15:00:00 9.8 15 Este 22 Este 0 968.3 -3.8 59
2019-01-19 14:00:00 9.7 11 Nordeste 22 Nordeste 0 969.9 -2.7 59
2019-01-19 13:00:00 8.5 12 Este 18 Este 0 971.2 -1.6 62
2019-01-19 12:00:00 9.5 8 Este 13 Este 0 972.1 -0.6 56
2019-01-19 11:00:00 7.7 4 Sudoeste 11 Noroeste 0 972.6 -0.3 63
2019-01-19 10:00:00 5.4 3 Oeste 11 Oeste 0 972.8 0.1 74
2019-01-19 09:00:00 3.6 7 Oeste 11 Sudoeste 0 972.7 -0.2 81
2019-01-19 08:00:00 4.3 7 Sudoeste 17 Oeste 0 972.9 -0.3 77
2019-01-19 07:00:00 4.7 10 Oeste 18 Oeste 0 972.7 -0.7 78
2019-01-19 06:00:00 4.8 9 Oeste 30 Oeste 0 972.9 -0.8 75
2019-01-19 05:00:00 5.1 12 Oeste 26 Oeste 0 973.2 -0.7 75
2019-01-19 04:00:00 5.1 7 Oeste 30 Oeste 0 973.4 -0.5 74
2019-01-19 03:00:00 5.9 14 Oeste 30 Oeste 0 973.7 -0.5 72
2019-01-19 02:00:00 6.1 14 Oeste 26 Oeste 0 973.9 0.1 70
2019-01-19 01:00:00 6.1 13 Oeste 30 Oeste 0 973.9 0.2 72
2019-01-19 00:00:00 5.9 15 Oeste 26 Oeste 0 974.2 0.5 72
2019-01-18 23:00:00 6 17 Oeste 24 Oeste 0 973.8 -0.2 73
2019-01-18 22:00:00 5.8 14 Oeste 22 Oeste 0 973.7 -0.4 72
2019-01-18 21:00:00 5.5 13 Oeste 22 Oeste 0 973.7 -0.3 75
2019-01-18 20:00:00 5.4 8 Oeste 17 Oeste 0 974 -0.3 74
2019-01-18 19:00:00 5.8 11 Oeste 18 Oeste 0 974.1 -0.4 73
2019-01-18 18:00:00 6.7 10 Oeste 18 Oeste 0 974 -0.7 70
2019-01-18 17:00:00 7.3 12 Oeste 22 Oeste 0 974.3 -0.9 71
2019-01-18 16:00:00 8 14 Oeste 24 Sudoeste 0 974.5 -1.8 65
2019-01-18 15:00:00 8.6 12 Oeste 22 Oeste -- 974.7 -2.3 60
2019-01-18 14:00:00 7.9 10 Oeste 18 Oeste 0 975.2 -2.1 65
2019-01-18 13:00:00 6.6 7 Oeste 15 Oeste 0 976.3 -0.8 70
2019-01-18 12:00:00 6.4 8 Oeste 18 Oeste 0 977 0.4 73
2019-01-18 11:00:00 5.4 8 Oeste 17 Oeste 0 977.3 0.6 76
2019-01-18 10:00:00 3.6 5 Oeste 9 Sudoeste 0 977.1 0.5 84
2019-01-18 09:00:00 2.2 2 Oeste 8 Oeste 0 976.6 -0.3 88
2019-01-18 08:00:00 2.7 5 Oeste 9 Oeste 0 976.7 -0.5 89
2019-01-18 07:00:00 2.3 0 Calma 13 Oeste 0 976.6 -1.5 89
2019-01-18 06:00:00 2 4 Sudoeste 11 Oeste 0 976.9 -1.1 90
2019-01-18 05:00:00 2.3 5 Oeste 8 Noroeste 0 977.2 -1.1 91
2019-01-18 04:00:00 2.4 0 Calma 8 Oeste 0 978.1 -0.5 89
2019-01-18 03:00:00 3.4 2 Sudoeste 9 Sudoeste 0 978 -0.8 86
2019-01-18 02:00:00 3.6 4 Oeste 9 Oeste 0 978.3 -0.2 86
2019-01-18 01:00:00 4.5 6 Sudoeste 11 Oeste 0 978.6 0.2 79
2019-01-18 00:00:00 6.2 7 Sudoeste 18 Sudoeste 0 978.8 0.5 71
2019-01-17 23:00:00 6 9 Sudoeste 13 Sudoeste 0 978.5 0.5 73
2019-01-17 22:00:00 5.9 6 Sudoeste 22 Oeste 0 978.4 1 71
2019-01-17 21:00:00 6.7 9 Oeste 18 Noroeste 0 978.3 1.5 70
2019-01-17 20:00:00 6.9 10 Oeste 21 Oeste 0 978 1.4 68
2019-01-17 19:00:00 7.6 9 Noroeste 18 Noroeste 0 977.4 1.3 70
2019-01-17 18:00:00 7.9 10 Oeste 26 Norte 0 976.8 0.6 65
2019-01-17 17:00:00 10 13 Noroeste 26 Norte 0 976.6 0 55
2019-01-17 16:00:00 11.6 11 Noroeste 22 Noroeste 0 976.1 -1.2 46
2019-01-17 15:00:00 10.4 8 Noroeste 28 Oeste 0 976.2 -1.6 56
2019-01-17 14:00:00 10.2 16 Oeste 28 Oeste 0 976.6 -1.1 59
2019-01-17 13:00:00 9.2 14 Oeste 26 Sudoeste 0 977.3 0.2 63
2019-01-17 12:00:00 7.8 13 Oeste 26 Oeste 0 977.8 1.2 68
2019-01-17 11:00:00 7.6 10 Oeste 22 Oeste 0 977.7 1.7 74
2019-01-17 10:00:00 6.8 11 Oeste 17 Oeste 0 977.1 1.6 78
2019-01-17 09:00:00 5.8 9 Oeste 15 Oeste 0 976.6 1.5 84
2019-01-17 08:00:00 5.9 11 Oeste 17 Oeste 0 976 1.2 83
2019-01-17 07:00:00 5.9 10 Oeste 21 Oeste 0 975.5 0.7 83
2019-01-17 06:00:00 5.6 9 Oeste 24 Oeste 0 975.1 0.2 84
2019-01-17 05:00:00 4.1 6 Oeste 11 Oeste 0 974.8 -0.1 88
2019-01-17 04:00:00 4.1 7 Oeste 18 Oeste 0 974.8 -0.5 85
2019-01-17 03:00:00 4.7 12 Oeste 17 Oeste 0 974.9 -0.7 83
2019-01-17 02:00:00 4.6 9 Oeste 15 Oeste 0 974.9 -0.8 86
2019-01-17 01:00:00 3.6 10 Oeste 13 Oeste 0 975.3 -0.1 89
2019-01-17 00:00:00 2.1 7 Oeste 11 Sudoeste 0 975.6 0.2 92
2019-01-16 23:00:00 2 3 Noroeste 11 Oeste 0 975.7 0.6 89
2019-01-16 22:00:00 2.8 6 Oeste 17 Sudoeste 0 975.4 0.7 88
2019-01-16 21:00:00 2.8 5 Sudoeste 13 Norte 0 975.4 1 94
2019-01-16 20:00:00 2.3 0 Calma 5 Sur 0 975.1 0.8 94
2019-01-16 19:00:00 3.9 5 Sudoeste 11 Oeste 0 974.7 0.4 88
2019-01-16 18:00:00 5.2 4 Oeste 15 Oeste 0 974.4 0.2 84
2019-01-16 17:00:00 6.9 5 Oeste 11 Sudoeste 0 974.3 -0.4 77
2019-01-16 16:00:00 6.3 4 Oeste 9 Este 0 974.3 -1 80
2019-01-16 15:00:00 5.9 3 Este 9 Nordeste 0 974.2 -1.9 85
2019-01-16 14:00:00 5.4 5 Este 9 Nordeste 0 974.7 -1.7 86
2019-01-16 13:00:00 4.6 5 Este 9 Nordeste 0 975.3 -0.8 86